Flight Track Log - Related Links

Times and Time Zones

All times are in EDT time to prevent confusion due to time zone crossing. See the ASQ6137 flight status page for this flight to view local times or setup timezone preferences in your user account.

Time Position Orientation Groundspeed Altitude Reporting Facility
EDT Latitude Longitude Course Direction KTS MPH feet Rate Location/Type
Sun 11:03:05 PM 39.8833 -104.5500 85° East 193 222 7,300  Level Denver TRACON
Sun 11:04:15 PM 39.8756 -104.4514 96° East 256 295 8,800 1,591 Climbing Denver Center
Sun 11:05:00 PM 39.8667 -104.0894 90° East  Level FlightAware Approximate
Sun 11:05:17 PM 39.8772 -104.3522 89° East 273 314 10,800  Level Denver Center
Sun 11:06:00 PM 39.8667 -103.9448 90° East  Level FlightAware Approximate
Sun 11:06:19 PM 39.8786 -104.2356 89° East 296 341 12,200  Level Denver Center
Sun 11:07:00 PM 39.8667 -103.8001 90° East  Level FlightAware Approximate
Sun 11:07:20 PM 39.8803 -104.1156 89° East 332 382 13,500  Level Denver Center
Sun 11:08:00 PM 39.8883 -103.6592 85° East  Level FlightAware Approximate
Sun 11:08:34 PM 39.8808 -103.9889 90° East 353 406 14,600  Level Denver Center
Sun 11:09:36 PM 39.8817 -103.8258 90° East 365 420 16,400 1,415 Climbing Denver Center
Sun 11:10:37 PM 39.8869 -103.6908 87° East 361 415 17,500 976 Climbing Denver Center
Sun 11:11:39 PM 39.9039 -103.5564 81° East 373 429 18,400 1,024 Climbing Denver Center
Sun 11:12:40 PM 39.9161 -103.4503 81° East 373 429 19,600 1,366 Climbing Denver Center
Sun 11:13:42 PM 39.9339 -103.2900 82° East 373 429 21,200 1,403 Climbing Denver Center
Sun 11:14:44 PM 39.9494 -103.1550 81° East 377 434 22,500 1,317 Climbing Denver Center
Sun 11:15:45 PM 39.9681 -102.9936 81° East 376 433 23,900 1,220 Climbing Denver Center
Sun 11:16:47 PM 39.9819 -102.8564 82° East 381 438 25,000 1,171 Climbing Denver Center
Sun 11:17:48 PM 39.9967 -102.7186 82° East 384 442 26,300 1,268 Climbing Denver Center
Sun 11:18:50 PM 40.0111 -102.5778 82° East 387 445 27,600 1,317 Climbing Denver Center
Sun 11:19:51 PM 40.0250 -102.4469 82° East 383 441 29,000 1,463 Climbing Denver Center
Sun 11:20:53 PM 40.0414 -102.2956 82° East 378 435 30,600 1,415 Climbing Denver Center
Sun 11:21:54 PM 40.0542 -102.1675 83° East 374 430 31,900 1,220 Climbing Denver Center
Sun 11:22:56 PM 40.0692 -102.0217 82° East 364 419 33,100 1,122 Climbing Denver Center
Sun 11:23:57 PM 40.0814 -101.8956 83° East 366 421 34,200 787 Climbing Denver Center
Sun 11:24:58 PM 40.0936 -101.7689 83° East 366 421 34,700 390 Climbing Denver Center
Sun 11:26:00 PM 40.1075 -101.6181 83° East 375 432 35,000 146 Climbing Denver Center
Sun 11:27:01 PM 40.1225 -101.4831 82° East 389 448 35,000  Level Denver Center
Sun 11:28:03 PM 40.1431 -101.3156 81° East 416 479 35,000  Level Denver Center
Sun 11:29:04 PM 40.1750 -101.1700 74° East 433 498 35,000  Level Denver Center
Sun 11:30:06 PM 40.2108 -100.9950 75° East 447 514 35,000  Level Denver Center
Sun 11:31:07 PM 40.2431 -100.8397 75° East 460 529 35,000  Level Denver Center
Sun 11:32:09 PM 40.2753 -100.6800 75° East 474 545 35,000  Level Denver Center
Sun 11:33:10 PM 40.3131 -100.4964 75° East 472 543 35,000  Level Denver Center
Sun 11:34:11 PM 40.3447 -100.3403 75° East 469 540 35,000  Level Denver Center
Sun 11:35:13 PM 40.3808 -100.1572 75° East 468 539 35,000  Level Denver Center
Sun 11:36:14 PM 40.4114 -100.0028 75° East 461 531 35,000  Level Denver Center
Sun 11:37:16 PM 40.4425 -99.8433 76° East 457 526 35,000  Level Denver Center
Sun 11:38:17 PM 40.4742 -99.6828 75° East 456 525 35,000  Level Denver Center
Sun 11:39:18 PM 40.5039 -99.5219 76° East 455 524 35,000  Level Denver Center
Sun 11:40:20 PM 40.5392 -99.3292 76° East 457 526 35,000  Level Minneapolis Center
Sun 11:41:21 PM 40.5692 -99.1681 76° East 457 526 35,000  Level Minneapolis Center
Sun 11:42:22 PM 40.5983 -99.0061 77° East 457 526 35,000  Level Minneapolis Center
Sun 11:43:23 PM 40.6264 -98.8442 77° East 457 526 35,000  Level Minneapolis Center
Sun 11:44:24 PM 40.6556 -98.6844 76° East 455 524 35,000  Level Minneapolis Center
Sun 11:45:24 PM 40.6831 -98.5258 77° East 450 518 35,000  Level Minneapolis Center
Sun 11:46:25 PM 40.7103 -98.3656 77° East 451 519 35,000  Level Minneapolis Center
Sun 11:47:26 PM 40.7386 -98.2069 77° East 449 517 35,000  Level Minneapolis Center
Sun 11:48:27 PM 40.7658 -98.0475 77° East 448 516 35,000  Level Minneapolis Center
Sun 11:49:28 PM 40.7922 -97.8872 78° East 448 516 35,000  Level Minneapolis Center
Sun 11:50:29 PM 40.8244 -97.6958 77° East 448 516 35,000  Level Minneapolis Center
Sun 11:51:30 PM 40.8508 -97.5372 78° East 444 511 35,000  Level Minneapolis Center
Sun 11:52:30 PM 40.8772 -97.3781 78° East 445 512 35,000  Level Minneapolis Center
Sun 11:53:31 PM 40.9003 -97.2322 78° East 444 511 35,000  Level Minneapolis Center
Sun 11:54:32 PM 40.9267 -97.0739 78° East 442 509 35,000  Level Minneapolis Center
Sun 11:55:33 PM 40.9514 -96.9153 78° East 442 509 35,000  Level Minneapolis Center
Sun 11:56:34 PM 40.9781 -96.7578 77° East 440 506 35,000  Level Minneapolis Center
Sun 11:57:35 PM 41.0025 -96.5994 78° East 441 507 35,000  Level Minneapolis Center
Sun 11:58:35 PM 41.0269 -96.4425 78° East 440 506 35,000  Level Minneapolis Center
Sun 11:59:36 PM 41.0575 -96.2517 78° East 442 509 35,000  Level Minneapolis Center
Mon 12:00:37 AM 41.0806 -96.0950 79° East 441 507 35,000  Level Minneapolis Center
Mon 12:01:38 AM 41.1033 -95.9372 79° East 442 509 35,000  Level Minneapolis Center
Mon 12:02:39 AM 41.1264 -95.7883 78° East 444 511 35,000  Level Minneapolis Center
Mon 12:03:52 AM 41.1561 -95.5875 79° East 444 511 35,000  Level Minneapolis Center
Mon 12:04:52 AM 41.1800 -95.4272 79° East 446 513 35,000  Level Minneapolis Center
Mon 12:05:53 AM 41.2039 -95.2656 79° East 449 517 35,000  Level Minneapolis Center
Mon 12:06:54 AM 41.2272 -95.1047 79° East 447 514 35,000  Level Minneapolis Center
Mon 12:07:55 AM 41.2492 -94.9436 80° East 444 511 35,000  Level Minneapolis Center
Mon 12:08:56 AM 41.2717 -94.7822 79° East 446 513 35,000  Level Minneapolis Center
Mon 12:09:56 AM 41.2942 -94.6217 79° East 444 511 35,000  Level Minneapolis Center
Mon 12:11:09 AM 41.3208 -94.4286 80° East 443 510 35,000  Level Minneapolis Center
Mon 12:12:10 AM 41.3472 -94.2350 80° East 445 512 35,000  Level Minneapolis Center
Mon 12:13:10 AM 41.3653 -94.0936 80° East 444 511 35,000  Level Minneapolis Center
Mon 12:14:11 AM 41.3875 -93.9328 80° East 445 512 35,000  Level Minneapolis Center
Mon 12:15:12 AM 41.4089 -93.7717 80° East 445 512 35,000  Level Minneapolis Center
Mon 12:16:12 AM 41.4294 -93.6097 80° East 446 513 35,000  Level Minneapolis Center
Mon 12:17:13 AM 41.4550 -93.4133 80° East 450 518 35,000  Level Minneapolis Center
Mon 12:18:14 AM 41.4756 -93.2517 80° East 448 516 35,000  Level Minneapolis Center
Mon 12:19:14 AM 41.4969 -93.0922 80° East 444 511 35,000  Level Minneapolis Center
Mon 12:20:15 AM 41.5161 -92.9328 81° East 440 506 35,000  Level Minneapolis Center
Mon 12:21:16 AM 41.5358 -92.7731 81° East 438 504 35,000  Level Minneapolis Center
Mon 12:22:16 AM 41.5544 -92.6144 81° East 437 503 35,000  Level Minneapolis Center
Mon 12:23:17 AM 41.5742 -92.4572 80° East 434 499 35,000  Level Minneapolis Center
Mon 12:24:17 AM 41.5928 -92.2978 81° East 435 501 35,000  Level Minneapolis Center
Mon 12:25:18 AM 41.6111 -92.1375 81° East 438 504 35,000  Level Minneapolis Center
Mon 12:26:19 AM 41.6286 -91.9789 82° East 436 502 35,000  Level Minneapolis Center
Mon 12:27:19 AM 41.6469 -91.8208 81° East 435 501 35,000  Level Minneapolis Center
Mon 12:28:20 AM 41.6639 -91.6697 81° East 437 503 35,000  Level Minneapolis Center
Mon 12:29:36 AM 41.6878 -91.4592 81° East 435 501 35,000  Level Chicago Center
Mon 12:30:36 AM 41.7042 -91.2997 82° East 438 504 35,000  Level Chicago Center
Mon 12:31:37 AM 41.7219 -91.1422 81° East 436 502 35,000  Level Chicago Center
Mon 12:32:37 AM 41.7417 -90.9508 82° East 438 504 35,000  Level Chicago Center
Mon 12:33:38 AM 41.7511 -90.7900 85° East 440 506 35,000  Level Chicago Center
Mon 12:34:38 AM 41.7583 -90.6300 86° East 436 502 35,000  Level Chicago Center
Mon 12:35:39 AM 41.7661 -90.4775 86° East 437 503 35,000  Level Chicago Center
Mon 12:36:39 AM 41.7739 -90.3117 86° East 443 510 35,000  Level Chicago Center
Mon 12:37:40 AM 41.7806 -90.1489 87° East 440 506 35,000  Level Chicago Center
Mon 12:38:40 AM 41.7878 -89.9842 87° East 442 509 35,000  Level Chicago Center
Mon 12:39:41 AM 41.7947 -89.8200 87° East 442 509 35,000  Level Chicago Center
Mon 12:40:41 AM 41.8019 -89.6542 87° East 444 511 35,000  Level Chicago Center
Mon 12:41:42 AM 41.8028 -89.4806 90° East 441 507 35,000  Level Chicago Center
Mon 12:42:42 AM 41.7989 -89.3156 92° East 444 511 35,000  Level Chicago Center
Mon 12:43:42 AM 41.7958 -89.1506 91° East 445 512 35,000  Level Chicago Center
Mon 12:44:43 AM 41.7917 -88.9867 92° East 444 511 35,000  Level Chicago Center
Mon 12:45:43 AM 41.7889 -88.8219 91° East 444 511 35,000  Level Chicago Center
Mon 12:46:44 AM 41.7844 -88.6575 92° East 446 513 35,000  Level Chicago Center
Mon 12:47:44 AM 41.7800 -88.4908 92° East 447 514 35,000  Level Chicago Center
Mon 12:48:44 AM 41.7756 -88.3247 92° East 449 517 35,000  Level Chicago Center
Mon 12:49:45 AM 41.7708 -88.1586 92° East 446 513 35,000  Level Chicago Center
Mon 12:50:45 AM 41.7656 -87.9908 92° East 449 517 35,000  Level Chicago Center
Mon 12:51:45 AM 41.7603 -87.8233 92° East 449 517 35,000  Level Chicago Center
Mon 12:52:46 AM 41.7533 -87.6586 93° East 445 512 35,000  Level Chicago Center
Mon 12:53:46 AM 41.7481 -87.4928 92° East 445 512 35,000  Level Chicago Center
Mon 12:54:46 AM 41.7428 -87.3267 92° East 448 516 35,000  Level Chicago Center
Mon 12:55:47 AM 41.7367 -87.1603 93° East 448 516 35,000  Level Chicago Center
Mon 12:56:47 AM 41.7294 -86.9947 93° East 447 514 35,000  Level Chicago Center
Mon 12:57:47 AM 41.7222 -86.8286 93° East 447 514 35,000  Level Chicago Center
Mon 12:58:48 AM 41.7153 -86.6603 93° East 448 516 35,000  Level Chicago Center
Mon 12:59:48 AM 41.7078 -86.4931 93° East 450 518 35,000  Level Chicago Center
Mon 01:00:48 AM 41.7000 -86.3247 93° East 453 521 35,000  Level Chicago Center
Mon 01:01:48 AM 41.6928 -86.1550 93° East 457 526 35,000  Level Chicago Center
Mon 01:02:49 AM 41.6839 -85.9850 94° East 458 527 35,000  Level Chicago Center
Mon 01:03:49 AM 41.6758 -85.8119 94° East 466 536 35,000  Level Chicago Center
Mon 01:04:49 AM 41.6678 -85.6406 94° East 464 534 35,000  Level Chicago Center
Mon 01:05:50 AM 41.6561 -85.4439 94° East 467 537 35,000  Level Chicago Center
Mon 01:06:50 AM 41.6472 -85.2642 94° East 476 548 35,000 -350 Level Chicago Center
Mon 01:07:50 AM 41.6389 -85.1000 94° East 467 537 34,300 -744 Descending Chicago Center
Mon 01:08:51 AM 41.6297 -84.9358 94° East 446 513 33,500 -893 Descending Chicago Center
Mon 01:09:51 AM 41.6186 -84.7619 95° East 466 536 32,500 -850 Descending Chicago Center
Mon 01:10:51 AM 41.6081 -84.5894 95° East 468 539 31,800 -1,000 Descending Chicago Center
Mon 01:11:51 AM 41.5983 -84.4225 94° East 455 524 30,500 -1,636 Descending Chicago Center
Mon 01:12:52 AM 41.5883 -84.2606 95° East 441 507 28,500 -1,983 Descending Chicago Center
Mon 01:13:52 AM 41.5778 -84.0964 95° East 444 511 26,500 -1,950 Descending Chicago Center
Mon 01:14:52 AM 41.5669 -83.9294 95° East 451 519 24,600 -1,250 Descending Chicago Center
Mon 01:15:52 AM 41.5558 -83.7658 95° East 444 511 24,000 -298 Descending Chicago Center
Mon 01:16:53 AM 41.5450 -83.6028 95° East 442 509 24,000 -583 Level Chicago Center
Mon 01:18:16 AM 41.5242 -83.3539 96° East 449 517 22,600 -1,133 Descending Cleveland Center
Mon 01:19:16 AM 41.5150 -83.2122 95° East 442 509 21,300 -1,650 Descending Cleveland Center
Mon 01:20:16 AM 41.5036 -83.0647 96° East 420 483 19,300 -2,257 Descending Cleveland Center
Mon 01:20:57 AM 41.4933 -82.9561 97° East 381 438 17,500 -2,167 Descending Cleveland Center
Mon 01:22:04 AM 41.4842 -82.7978 94° East 403 464 15,400 -2,063 Descending Cleveland Center
Mon 01:23:05 AM 41.4658 -82.6642 100° East 361 415 13,100 -2,430 Descending Cleveland Center
Mon 01:24:05 AM 41.4389 -82.5303 105° East 339 390 10,500 -1,736 Descending Cleveland Center
Mon 01:25:06 AM 41.4219 -82.4219 102° East 273 314 9,600 -1,388 Descending Cleveland Center
Mon 01:26:06 AM 41.4006 -82.3244 106° East 282 325 7,700 -1,835 Descending Cleveland Center
Mon 01:27:07 AM 41.3792 -82.2242 106° East 274 315 5,900 -1,385 Descending Cleveland Center
Mon 01:28:16 AM 41.3556 -82.1156 106° East 264 304 4,700 -898 Descending Cleveland Center
Mon 01:29:14 AM 41.3397 -82.0433 106° East 196 226 4,000 -807 Descending Cleveland Center
Mon 01:30:15 AM 41.3364 -81.9908 95° East 133 153 3,100 -787 Descending Cleveland Center
Mon 01:31:16 AM 41.3494 -81.9467 68° East 127 146 2,400 -730 Descending Cleveland Center
Mon 01:32:10 AM 41.3728 -81.9114 49° Northeast 158 182 1,700 -730 Descending Cleveland Center
Mon 01:33:11 AM 41.3961 -81.8731 51° Northeast 139 160 1,000 -689 Descending Cleveland Center

Login

Don't have an account? Register now (free) for customized features, flight alerts, and more!